createdAt,value
2019-01-26T00:01:43.499Z,14.70
2019-01-26T00:04:13.339Z,14.87
2019-01-26T00:06:43.257Z,14.80
2019-01-26T00:09:13.155Z,14.90
2019-01-26T00:11:43.001Z,15.07
2019-01-26T00:14:12.763Z,14.73
2019-01-26T00:16:42.850Z,15.33
2019-01-26T00:19:12.660Z,14.57
2019-01-26T00:21:42.483Z,15.20
2019-01-26T00:24:12.283Z,14.50
2019-01-26T00:26:42.070Z,15.67
2019-01-26T00:29:11.940Z,15.17
2019-01-26T00:31:41.814Z,14.87
2019-01-26T00:34:11.638Z,14.50
2019-01-26T00:36:41.354Z,14.90
2019-01-26T00:39:11.104Z,13.63
2019-01-26T00:41:40.850Z,14.43
2019-01-26T00:44:10.676Z,14.20
2019-01-26T00:46:40.600Z,15.07
2019-01-26T00:49:10.660Z,15.27
2019-01-26T00:51:40.442Z,15.93
2019-01-26T00:54:10.454Z,15.93
2019-01-26T00:56:40.444Z,16.13
2019-01-26T00:59:10.315Z,16.67
2019-01-26T01:01:40.240Z,16.30
2019-01-26T01:04:10.083Z,17.23
2019-01-26T01:06:40.026Z,16.20
2019-01-26T01:09:09.783Z,16.23
2019-01-26T01:11:39.949Z,15.73
2019-01-26T01:14:09.793Z,16.93
2019-01-26T01:16:39.633Z,16.70
2019-01-26T01:19:09.465Z,17.40
2019-01-26T01:21:39.684Z,16.20
2019-01-26T01:24:09.641Z,16.43
2019-01-26T01:26:39.439Z,17.23
2019-01-26T01:29:09.380Z,17.43
2019-01-26T01:31:39.135Z,17.37
2019-01-26T01:34:08.964Z,16.67
2019-01-26T01:36:38.774Z,16.63
2019-01-26T01:39:09.035Z,16.60
2019-01-26T01:41:38.825Z,17.57
2019-01-26T01:44:08.681Z,16.90
2019-01-26T01:46:42.912Z,17.13
2019-01-26T01:49:10.289Z,17.50
2019-01-26T01:51:40.276Z,17.13
2019-01-26T01:54:09.975Z,18.07
2019-01-26T01:56:39.978Z,18.90
2019-01-26T01:59:10.047Z,19.17
2019-01-26T02:01:40.119Z,18.37
2019-01-26T02:04:10.128Z,18.60
2019-01-26T02:06:40.197Z,16.80
2019-01-26T02:09:10.414Z,18.03
2019-01-26T02:11:40.691Z,16.20
2019-01-26T02:14:10.646Z,17.30
2019-01-26T02:16:40.842Z,17.53
2019-01-26T02:19:10.922Z,18.00
2019-01-26T02:21:40.794Z,16.67
2019-01-26T02:24:10.811Z,17.30
2019-01-26T02:26:40.688Z,17.47
2019-01-26T02:29:10.511Z,16.63
2019-01-26T02:31:40.660Z,17.73
2019-01-26T02:34:10.504Z,16.53
2019-01-26T02:36:40.300Z,17.63
2019-01-26T02:39:10.211Z,18.00
2019-01-26T02:41:40.049Z,17.40
2019-01-26T02:44:09.975Z,17.60
2019-01-26T02:46:39.784Z,17.53
2019-01-26T02:49:09.580Z,18.53
2019-01-26T02:51:39.313Z,18.03
2019-01-26T02:54:09.195Z,17.03
2019-01-26T02:56:39.030Z,16.93
2019-01-26T02:59:08.931Z,18.67
2019-01-26T03:01:38.706Z,17.23
2019-01-26T03:04:08.511Z,16.33
2019-01-26T03:06:38.438Z,16.30
2019-01-26T03:09:09.253Z,16.37
2019-01-26T03:11:39.038Z,18.13
2019-01-26T03:14:08.807Z,17.30
2019-01-26T03:16:38.606Z,17.83
2019-01-26T03:19:08.382Z,16.83
2019-01-26T03:21:38.670Z,17.40
2019-01-26T03:24:08.646Z,17.40
2019-01-26T03:26:38.483Z,17.07
2019-01-26T03:29:08.272Z,17.60
2019-01-26T03:31:38.082Z,18.83
2019-01-26T03:34:07.816Z,18.13
2019-01-26T03:36:37.654Z,17.73
2019-01-26T03:39:08.268Z,17.10
2019-01-26T03:41:38.130Z,16.87
2019-01-26T03:44:07.952Z,17.27
2019-01-26T03:46:37.864Z,16.17
2019-01-26T03:49:07.655Z,19.47
2019-01-26T03:51:37.450Z,16.83
2019-01-26T03:54:07.254Z,17.27
2019-01-26T03:56:37.090Z,17.53
2019-01-26T03:59:07.099Z,16.83
2019-01-26T04:01:36.985Z,17.97
2019-01-26T04:04:06.841Z,16.63
2019-01-26T04:06:36.880Z,17.63
2019-01-26T04:09:08.696Z,17.73
2019-01-26T04:11:38.625Z,17.10
2019-01-26T04:14:08.652Z,16.70
2019-01-26T04:16:38.665Z,16.00
2019-01-26T04:19:08.596Z,15.13
2019-01-26T04:21:38.422Z,15.77
2019-01-26T04:24:08.411Z,15.10
2019-01-26T04:26:38.159Z,15.30
2019-01-26T04:29:08.152Z,13.77
2019-01-26T04:31:38.037Z,12.67
2019-01-26T04:34:07.930Z,11.40
2019-01-26T04:36:37.799Z,11.67
2019-01-26T04:39:08.169Z,11.97
2019-01-26T04:41:38.040Z,11.20
2019-01-26T04:44:07.855Z,12.03
2019-01-26T04:46:37.662Z,11.83
2019-01-26T04:49:07.405Z,11.27
2019-01-26T04:51:37.272Z,12.43
2019-01-26T04:54:07.127Z,12.17
2019-01-26T04:56:36.939Z,12.97
2019-01-26T04:59:07.023Z,12.60
2019-01-26T05:01:36.721Z,11.63
2019-01-26T05:04:06.639Z,12.43
2019-01-26T05:06:36.447Z,12.50
2019-01-26T05:09:08.096Z,12.63
2019-01-26T05:11:38.126Z,13.40
2019-01-26T05:14:08.023Z,12.27
2019-01-26T05:16:38.050Z,13.50
2019-01-26T05:19:07.855Z,13.63
2019-01-26T05:21:37.778Z,14.23
2019-01-26T05:24:07.770Z,14.80
2019-01-26T05:26:37.859Z,13.73
2019-01-26T05:29:07.950Z,12.30
2019-01-26T05:31:37.848Z,13.70
2019-01-26T05:34:07.714Z,13.20
2019-01-26T05:36:37.558Z,13.67
2019-01-26T05:39:09.080Z,13.40
2019-01-26T05:41:39.096Z,14.27
2019-01-26T05:44:09.022Z,13.33
2019-01-26T05:46:40.569Z,14.87
2019-01-26T05:49:10.315Z,14.23
2019-01-26T05:51:40.195Z,15.80
2019-01-26T05:54:09.956Z,13.27
2019-01-26T05:56:39.802Z,16.20
2019-01-26T05:59:09.698Z,15.77
2019-01-26T06:01:39.586Z,15.30
2019-01-26T06:04:09.484Z,17.73
2019-01-26T06:06:39.554Z,15.73
2019-01-26T06:09:09.565Z,14.80
2019-01-26T06:11:39.601Z,14.50
2019-01-26T06:14:09.517Z,13.97
2019-01-26T06:16:39.462Z,15.43
2019-01-26T06:19:09.647Z,13.77
2019-01-26T06:21:39.844Z,13.77
2019-01-26T06:24:09.816Z,12.37
2019-01-26T06:26:39.789Z,14.23
2019-01-26T06:29:09.626Z,12.53
2019-01-26T06:31:39.622Z,13.53
2019-01-26T06:34:09.445Z,14.60
2019-01-26T06:36:39.492Z,12.77
2019-01-26T06:39:09.486Z,13.80
2019-01-26T06:41:39.441Z,13.40
2019-01-26T06:44:09.231Z,13.10
2019-01-26T06:46:39.065Z,12.67
2019-01-26T06:49:08.952Z,12.07
2019-01-26T06:51:42.555Z,13.17
2019-01-26T06:54:17.128Z,13.20
2019-01-26T06:56:47.076Z,13.53
2019-01-26T06:59:16.960Z,13.50
2019-01-26T07:01:46.957Z,13.60
2019-01-26T07:04:21.207Z,12.07
2019-01-26T07:06:52.749Z,12.57
2019-01-26T07:09:22.570Z,12.07
2019-01-26T07:11:52.419Z,12.47
2019-01-26T07:14:22.265Z,11.83
2019-01-26T07:16:52.100Z,12.87
2019-01-26T07:19:21.818Z,13.10
2019-01-26T07:21:51.778Z,13.57
2019-01-26T07:24:21.707Z,13.13
2019-01-26T07:26:51.448Z,12.00
2019-01-26T07:29:21.607Z,13.07
2019-01-26T07:31:51.504Z,12.07
2019-01-26T07:34:21.614Z,12.23
2019-01-26T07:36:51.502Z,12.47
2019-01-26T07:39:21.377Z,12.70
2019-01-26T07:41:51.404Z,12.70
2019-01-26T07:44:21.219Z,13.40
2019-01-26T07:46:51.268Z,13.87
2019-01-26T07:49:21.057Z,13.83
2019-01-26T07:51:51.059Z,13.90
2019-01-26T07:54:20.849Z,13.63
2019-01-26T07:56:50.821Z,13.67
2019-01-26T07:59:20.703Z,13.30
2019-01-26T08:01:50.492Z,13.77
2019-01-26T08:04:21.271Z,13.40
2019-01-26T08:06:51.190Z,13.27
2019-01-26T08:09:21.154Z,13.63
2019-01-26T08:11:50.924Z,13.43
2019-01-26T08:14:20.789Z,12.67
2019-01-26T08:16:50.547Z,13.10
2019-01-26T08:19:21.912Z,13.53
2019-01-26T08:21:51.705Z,13.23
2019-01-26T08:24:21.596Z,13.23
2019-01-26T08:26:52.896Z,13.20
2019-01-26T08:29:22.913Z,13.43
2019-01-26T08:31:52.581Z,13.00
2019-01-26T08:34:22.374Z,13.90
2019-01-26T08:36:52.174Z,13.13
2019-01-26T08:39:22.042Z,12.93
2019-01-26T08:41:51.823Z,13.93
2019-01-26T08:44:21.639Z,14.20
2019-01-26T08:46:55.754Z,14.00
2019-01-26T08:49:28.348Z,12.73
2019-01-26T08:51:58.153Z,14.07
2019-01-26T08:54:30.965Z,14.23
2019-01-26T08:57:02.379Z,12.50
2019-01-26T08:59:36.883Z,12.90
2019-01-26T09:02:12.865Z,12.23
2019-01-26T09:04:42.746Z,12.43
2019-01-26T09:07:15.772Z,12.87
2019-01-26T09:09:45.703Z,12.80
2019-01-26T09:12:15.603Z,12.30
2019-01-26T09:14:48.628Z,12.50
2019-01-26T09:17:18.688Z,12.23
2019-01-26T09:19:48.501Z,12.23
2019-01-26T09:22:23.581Z,11.37
2019-01-26T09:24:54.439Z,11.47
2019-01-26T09:27:24.309Z,10.87
2019-01-26T09:29:54.218Z,12.07
2019-01-26T09:32:24.097Z,11.50
2019-01-26T09:34:53.969Z,10.53
2019-01-26T09:37:26.571Z,10.67
2019-01-26T09:39:56.558Z,10.73
2019-01-26T09:42:26.328Z,10.60
2019-01-26T09:44:56.143Z,10.90
2019-01-26T09:47:26.158Z,10.17
2019-01-26T09:49:56.060Z,10.93
2019-01-26T09:52:25.924Z,9.90
2019-01-26T09:54:55.714Z,10.60
2019-01-26T09:57:27.259Z,9.53
2019-01-26T09:59:59.115Z,8.90
2019-01-26T10:02:29.049Z,9.70
2019-01-26T10:05:02.113Z,9.10
2019-01-26T10:07:31.956Z,9.03
2019-01-26T10:10:03.221Z,8.97
2019-01-26T10:12:33.263Z,8.83
2019-01-26T10:15:03.131Z,8.93
2019-01-26T10:17:33.557Z,8.60
2019-01-26T10:20:12.119Z,8.73
2019-01-26T10:22:41.822Z,7.73
2019-01-26T10:25:15.871Z,7.90
2019-01-26T10:27:55.985Z,8.93
2019-01-26T10:30:35.916Z,8.20
2019-01-26T10:33:09.964Z,8.87
2019-01-26T10:35:45.996Z,10.03
2019-01-26T10:38:16.446Z,7.90
2019-01-26T10:40:56.783Z,8.20
2019-01-26T10:43:28.344Z,9.10
2019-01-26T10:45:58.387Z,8.53
2019-01-26T10:48:28.230Z,9.30
2019-01-26T10:51:01.235Z,8.63
2019-01-26T10:53:34.139Z,8.93
2019-01-26T10:56:04.575Z,8.57
2019-01-26T10:58:34.467Z,9.27
2019-01-26T11:01:06.970Z,9.07
2019-01-26T11:03:38.849Z,9.30
2019-01-26T11:06:09.245Z,8.53
2019-01-26T11:08:39.286Z,8.83
2019-01-26T11:11:11.040Z,10.10
2019-01-26T11:13:41.181Z,9.17
2019-01-26T11:16:10.986Z,9.17
2019-01-26T11:18:46.220Z,9.43
2019-01-26T11:21:17.642Z,10.87
2019-01-26T11:23:48.843Z,9.77
2019-01-26T11:26:20.896Z,9.67
2019-01-26T11:28:54.299Z,10.00
2019-01-26T11:31:27.911Z,10.73
2019-01-26T11:34:21.957Z,9.83
2019-01-26T11:36:53.448Z,9.53
2019-01-26T11:39:42.011Z,9.67
2019-01-26T11:42:08.498Z,10.07
2019-01-26T11:44:47.661Z,8.97
2019-01-26T11:47:23.303Z,9.10
2019-01-26T11:49:56.465Z,8.87
2019-01-26T11:52:29.720Z,8.90
2019-01-26T11:55:06.247Z,9.03
2019-01-26T11:57:39.926Z,10.40
2019-01-26T12:00:17.155Z,9.77
2019-01-26T12:02:54.792Z,9.10
2019-01-26T12:05:32.425Z,9.63
2019-01-26T12:08:04.156Z,10.23
2019-01-26T12:10:35.816Z,11.10
2019-01-26T12:13:09.383Z,10.83
2019-01-26T12:16:01.568Z,10.57
2019-01-26T12:21:23.693Z,10.87
2019-01-26T12:23:55.950Z,10.80
2019-01-26T12:26:27.508Z,12.00
2019-01-26T12:29:06.683Z,10.83
2019-01-26T12:31:46.744Z,10.77
2019-01-26T12:34:19.110Z,11.27
2019-01-26T12:36:59.477Z,10.20
2019-01-26T12:39:29.388Z,10.30
2019-01-26T12:41:59.257Z,9.80
2019-01-26T12:44:29.249Z,10.10
2019-01-26T12:49:41.552Z,10.40
2019-01-26T12:52:11.167Z,10.90
2019-01-26T12:54:40.741Z,9.73
2019-01-26T12:57:10.422Z,10.73
2019-01-26T12:59:40.005Z,10.63
2019-01-26T13:02:09.696Z,10.07
2019-01-26T13:04:40.192Z,10.13
2019-01-26T13:07:09.871Z,9.43
2019-01-26T13:09:39.349Z,9.70
2019-01-26T13:12:09.037Z,10.40
2019-01-26T13:14:38.624Z,10.80
2019-01-26T13:17:08.279Z,10.03
2019-01-26T13:19:37.887Z,9.80
2019-01-26T13:22:07.629Z,10.47
2019-01-26T13:24:37.233Z,9.90
2019-01-26T13:27:06.918Z,9.77
2019-01-26T13:29:36.545Z,8.97
2019-01-26T13:32:06.191Z,9.67
2019-01-26T13:34:35.891Z,9.53
2019-01-26T13:37:05.555Z,10.17
2019-01-26T13:39:35.195Z,9.90
2019-01-26T13:42:04.972Z,9.20
2019-01-26T13:44:34.646Z,9.87
2019-01-26T13:47:04.419Z,9.37
2019-01-26T13:49:34.027Z,9.63
2019-01-26T13:52:03.643Z,9.20
2019-01-26T13:54:33.380Z,8.67
2019-01-26T13:57:02.990Z,8.63
2019-01-26T13:59:32.776Z,8.10
2019-01-26T14:02:02.414Z,7.73
2019-01-26T14:04:31.970Z,9.03
2019-01-26T14:07:01.660Z,8.83
2019-01-26T14:09:31.136Z,8.83
2019-01-26T14:12:00.713Z,8.60
2019-01-26T14:14:30.499Z,8.30
2019-01-26T14:17:00.154Z,9.20
2019-01-26T14:19:29.743Z,9.27
2019-01-26T14:21:59.322Z,9.20
2019-01-26T14:24:29.000Z,10.17
2019-01-26T14:26:58.652Z,9.87
2019-01-26T14:29:28.283Z,9.70
2019-01-26T14:31:57.901Z,10.47
2019-01-26T14:34:27.510Z,9.40
2019-01-26T14:36:57.134Z,9.37
2019-01-26T14:39:26.693Z,8.97
2019-01-26T14:41:56.353Z,9.00
2019-01-26T14:44:25.931Z,9.03
2019-01-26T14:46:55.528Z,8.70
2019-01-26T14:49:25.165Z,9.00
2019-01-26T14:51:54.767Z,9.10
2019-01-26T14:54:24.421Z,9.17
2019-01-26T14:56:54.012Z,9.80
2019-01-26T14:59:23.580Z,10.00
2019-01-26T15:01:53.299Z,10.17
2019-01-26T15:04:22.946Z,9.00
2019-01-26T15:06:52.486Z,9.17
2019-01-26T15:09:22.085Z,9.40
2019-01-26T15:11:51.760Z,10.30
2019-01-26T15:14:21.435Z,9.73
2019-01-26T15:16:50.900Z,9.77
2019-01-26T15:19:20.563Z,11.27
2019-01-26T15:21:50.139Z,10.67
2019-01-26T15:24:19.834Z,10.83
2019-01-26T15:26:49.462Z,10.40
2019-01-26T15:29:19.032Z,10.77
2019-01-26T15:31:48.699Z,11.70
2019-01-26T15:34:18.390Z,10.87
2019-01-26T15:36:48.060Z,12.23
2019-01-26T15:39:17.649Z,12.40
2019-01-26T15:41:47.328Z,13.00
2019-01-26T15:44:16.997Z,13.63
2019-01-26T15:46:46.560Z,13.60
2019-01-26T15:49:16.193Z,14.73
2019-01-26T15:51:45.794Z,15.40
2019-01-26T15:54:15.866Z,15.83
2019-01-26T15:56:45.516Z,17.10
2019-01-26T15:59:15.161Z,16.90
2019-01-26T16:01:44.691Z,17.20
2019-01-26T16:04:14.356Z,19.47
2019-01-26T16:06:43.992Z,18.87
2019-01-26T16:09:13.673Z,19.17
2019-01-26T16:11:43.310Z,20.37
2019-01-26T16:14:12.875Z,20.27
2019-01-26T16:16:42.439Z,20.87
2019-01-26T16:19:12.015Z,21.70
2019-01-26T16:21:41.601Z,21.37
2019-01-26T16:24:11.109Z,23.23
2019-01-26T16:26:40.782Z,22.07
2019-01-26T16:29:10.363Z,23.03
2019-01-26T16:31:40.017Z,22.47
2019-01-26T16:34:09.669Z,22.23
2019-01-26T16:36:39.280Z,21.40
2019-01-26T16:39:09.537Z,21.87
2019-01-26T16:41:39.331Z,21.53
2019-01-26T16:44:09.003Z,21.53
2019-01-26T16:46:38.676Z,22.23
2019-01-26T16:49:08.310Z,21.73
2019-01-26T16:51:37.978Z,22.03
2019-01-26T16:54:07.594Z,22.80
2019-01-26T16:56:37.200Z,23.43
2019-01-26T16:59:06.776Z,24.70
2019-01-26T17:01:36.474Z,23.10
2019-01-26T17:04:06.110Z,22.80
2019-01-26T17:06:35.724Z,25.20
2019-01-26T17:09:07.889Z,25.03
2019-01-26T17:11:37.520Z,24.20
2019-01-26T17:14:07.317Z,26.30
2019-01-26T17:16:36.900Z,24.70
2019-01-26T17:19:06.551Z,25.80
2019-01-26T17:21:36.211Z,25.00
2019-01-26T17:24:05.800Z,24.07
2019-01-26T17:26:35.356Z,23.53
2019-01-26T17:29:05.019Z,26.47
2019-01-26T17:31:34.558Z,25.70
2019-01-26T17:34:04.324Z,27.43
2019-01-26T17:36:33.998Z,27.67
2019-01-26T17:39:05.126Z,27.80
2019-01-26T17:41:34.879Z,29.73
2019-01-26T17:44:04.738Z,28.17
2019-01-26T17:46:34.311Z,28.13
2019-01-26T17:49:04.273Z,28.33
2019-01-26T17:51:33.809Z,29.30
2019-01-26T17:54:03.497Z,29.33
2019-01-26T17:56:33.073Z,28.30
2019-01-26T17:59:02.827Z,29.00
2019-01-26T18:01:32.501Z,28.90
2019-01-26T18:04:01.963Z,29.93
2019-01-26T18:06:31.648Z,29.90
2019-01-26T18:09:01.263Z,30.10
2019-01-26T18:11:30.864Z,29.03
2019-01-26T18:14:00.451Z,31.77
2019-01-26T18:16:30.034Z,30.03
2019-01-26T18:18:59.783Z,30.87
2019-01-26T18:21:29.323Z,29.70
2019-01-26T18:23:58.948Z,31.07
2019-01-26T18:26:28.617Z,29.47
2019-01-26T18:28:58.125Z,29.23
2019-01-26T18:31:27.799Z,31.70
2019-01-26T18:33:57.449Z,30.90
2019-01-26T18:36:27.039Z,29.37
2019-01-26T18:38:56.713Z,30.80
2019-01-26T18:41:26.293Z,29.30
2019-01-26T18:43:56.002Z,27.57
2019-01-26T18:46:25.551Z,27.20
2019-01-26T18:48:55.321Z,26.13
2019-01-26T18:51:24.961Z,27.23
2019-01-26T18:53:54.640Z,27.30
2019-01-26T18:56:24.246Z,26.10
2019-01-26T18:58:53.876Z,24.30
2019-01-26T19:01:23.459Z,24.07
2019-01-26T19:03:59.048Z,25.53
2019-01-26T19:06:28.714Z,24.23
2019-01-26T19:08:58.233Z,25.17
2019-01-26T19:11:27.899Z,22.40
2019-01-26T19:13:57.462Z,23.93
2019-01-26T19:16:27.141Z,23.37
2019-01-26T19:18:56.725Z,24.67
2019-01-26T19:21:26.507Z,23.47
2019-01-26T19:23:56.076Z,22.30
2019-01-26T19:26:25.702Z,21.87
2019-01-26T19:28:55.407Z,21.73
2019-01-26T19:31:25.021Z,21.30
2019-01-26T19:33:54.637Z,20.87
2019-01-26T19:36:24.207Z,21.03
2019-01-26T19:38:53.893Z,19.83
2019-01-26T19:41:23.570Z,20.03
2019-01-26T19:43:53.124Z,20.07
2019-01-26T19:46:22.763Z,20.33
2019-01-26T19:48:52.406Z,20.13
2019-01-26T19:51:22.080Z,19.03
2019-01-26T19:53:51.836Z,18.10
2019-01-26T19:56:21.428Z,18.87
2019-01-26T19:58:51.107Z,18.47
2019-01-26T20:01:20.769Z,18.67
2019-01-26T20:03:50.437Z,18.43
2019-01-26T20:06:20.197Z,18.37
2019-01-26T20:08:49.920Z,18.57
2019-01-26T20:11:19.504Z,17.23
2019-01-26T20:13:49.188Z,18.00
2019-01-26T20:16:19.197Z,17.73
2019-01-26T20:18:48.872Z,17.10
2019-01-26T20:21:18.501Z,17.23
2019-01-26T20:23:48.189Z,17.43
2019-01-26T20:26:17.809Z,17.20
2019-01-26T20:28:47.604Z,17.73
2019-01-26T20:31:17.260Z,16.43
2019-01-26T20:33:46.926Z,17.10
2019-01-26T20:36:16.593Z,17.83
2019-01-26T20:38:46.255Z,16.47
2019-01-26T20:41:15.869Z,16.37
2019-01-26T20:43:45.530Z,17.60
2019-01-26T20:46:15.208Z,15.63
2019-01-26T20:48:44.748Z,15.77
2019-01-26T20:51:14.370Z,15.97
2019-01-26T20:53:44.042Z,15.07
2019-01-26T20:56:13.928Z,14.47
2019-01-26T20:58:43.450Z,12.90
2019-01-26T21:01:13.094Z,14.27
2019-01-26T21:03:42.640Z,15.13
2019-01-26T21:06:12.339Z,14.03
2019-01-26T21:08:41.884Z,13.03
2019-01-26T21:11:11.560Z,12.77
2019-01-26T21:13:41.111Z,11.93
2019-01-26T21:16:10.805Z,11.47
2019-01-26T21:18:40.383Z,11.90
2019-01-26T21:21:09.992Z,10.50
2019-01-26T21:23:39.596Z,10.60
2019-01-26T21:26:09.285Z,10.20
2019-01-26T21:28:38.983Z,9.47
2019-01-26T21:31:08.626Z,9.07
2019-01-26T21:33:38.278Z,9.73
2019-01-26T21:36:07.990Z,10.27
2019-01-26T21:38:37.574Z,9.33
2019-01-26T21:41:07.235Z,9.57
2019-01-26T21:43:36.813Z,9.03
2019-01-26T21:46:06.490Z,8.20
2019-01-26T21:48:36.045Z,9.03
2019-01-26T21:51:05.713Z,8.43
2019-01-26T21:53:35.280Z,8.83
2019-01-26T21:56:05.120Z,7.97
2019-01-26T21:58:34.702Z,7.13
2019-01-26T22:01:04.562Z,7.40
2019-01-26T22:03:34.247Z,7.67
2019-01-26T22:06:04.393Z,6.67
2019-01-26T22:08:33.968Z,7.67
2019-01-26T22:11:03.605Z,6.37
2019-01-26T22:13:33.252Z,6.90
2019-01-26T22:16:02.838Z,6.80
2019-01-26T22:18:32.397Z,6.73
2019-01-26T22:21:02.040Z,7.20
2019-01-26T22:23:31.709Z,7.93
2019-01-26T22:26:01.316Z,6.73
2019-01-26T22:28:30.899Z,8.13
2019-01-26T22:31:00.481Z,6.90
2019-01-26T22:33:30.112Z,7.03
2019-01-26T22:35:59.743Z,7.10
2019-01-26T22:38:29.328Z,6.53
2019-01-26T22:40:58.906Z,7.00
2019-01-26T22:43:28.559Z,7.07
2019-01-26T22:45:58.223Z,6.40
2019-01-26T22:48:28.027Z,7.73
2019-01-26T22:50:57.564Z,7.03
2019-01-26T22:53:27.195Z,7.60
2019-01-26T22:55:56.780Z,7.20
2019-01-26T22:58:26.324Z,7.07
2019-01-26T23:00:59.427Z,7.03
2019-01-26T23:03:37.917Z,7.20
2019-01-26T23:06:29.689Z,6.80
2019-01-26T23:09:11.698Z,6.70
2019-01-26T23:12:00.419Z,6.50
2019-01-26T23:14:52.191Z,6.40
2019-01-26T23:17:42.384Z,6.30
2019-01-26T23:20:17.792Z,5.60
2019-01-26T23:22:53.084Z,5.57
2019-01-26T23:25:40.495Z,5.50
2019-01-26T23:28:15.752Z,4.70
2019-01-26T23:30:50.976Z,5.00
2019-01-26T23:33:20.625Z,4.83
2019-01-26T23:35:50.276Z,5.07
2019-01-26T23:38:20.105Z,4.57
2019-01-26T23:40:49.800Z,4.37
2019-01-26T23:43:19.432Z,3.83
2019-01-26T23:45:49.107Z,4.53
2019-01-26T23:48:18.764Z,3.83
2019-01-26T23:50:48.321Z,4.20
2019-01-26T23:53:17.981Z,3.90
2019-01-26T23:55:47.651Z,3.50
2019-01-26T23:58:17.685Z,3.60
